createdAt,value
2019-01-23T18:31:23.523Z,19.03
2019-01-23T18:34:01.082Z,16.57
2019-01-23T18:38:42.665Z,16.10
2019-01-23T18:41:30.093Z,15.03
2019-01-23T18:44:07.762Z,15.90
2019-01-23T18:46:54.968Z,14.80
2019-01-23T18:49:40.808Z,16.97
2019-01-23T18:52:12.813Z,17.37
2019-01-23T18:54:43.081Z,15.97
2019-01-23T18:57:12.857Z,14.80
2019-01-23T18:59:40.776Z,16.93
2019-01-23T19:02:08.811Z,16.33
2019-01-23T19:04:36.825Z,20.80
2019-01-23T19:07:04.845Z,29.47
2019-01-23T19:09:32.855Z,21.57
2019-01-23T19:12:00.996Z,53.27
2019-01-23T19:14:29.052Z,43.67
2019-01-23T19:16:57.300Z,36.50
2019-01-23T19:19:27.120Z,56.83
2019-01-23T19:21:55.377Z,48.13
2019-01-23T19:24:23.533Z,75.10
2019-01-23T19:26:54.615Z,53.73
2019-01-23T19:29:22.593Z,95.80
2019-01-23T19:31:50.563Z,123.47
2019-01-23T19:34:19.348Z,102.70
2019-01-23T19:36:47.356Z,120.50
2019-01-23T19:39:15.530Z,145.60
2019-01-23T19:41:43.468Z,151.37
2019-01-23T19:44:11.552Z,84.20
2019-01-23T19:46:39.564Z,151.00
2019-01-23T19:49:07.552Z,91.47
2019-01-23T19:51:36.747Z,165.87
2019-01-23T19:54:04.995Z,132.53
2019-01-23T19:56:33.064Z,180.90
2019-01-23T19:59:01.050Z,169.87
2019-01-23T20:01:29.095Z,117.53
2019-01-23T20:03:57.174Z,152.47
2019-01-23T20:06:25.100Z,107.57
2019-01-23T20:08:53.140Z,135.07
2019-01-23T20:11:21.259Z,106.60
2019-01-23T20:13:49.718Z,107.23
2019-01-23T20:16:17.802Z,113.07
2019-01-23T20:18:45.886Z,118.80
2019-01-23T20:21:13.880Z,61.50
2019-01-23T20:23:42.086Z,95.43
2019-01-23T20:26:10.048Z,58.87
2019-01-23T20:28:38.052Z,57.77
2019-01-23T20:31:06.064Z,78.93
2019-01-23T20:33:36.208Z,30.83
2019-01-23T20:36:04.657Z,36.50
2019-01-23T20:38:32.641Z,43.17
2019-01-23T20:41:00.703Z,76.83
2019-01-23T20:43:29.937Z,61.13
2019-01-23T20:45:58.142Z,182.07
2019-01-23T20:48:29.143Z,38.40
2019-01-23T20:50:57.391Z,24.10
2019-01-23T20:53:25.423Z,68.07
2019-01-23T20:55:53.365Z,17.30
2019-01-23T20:58:21.377Z,18.97
2019-01-23T21:00:49.364Z,11.73
2019-01-23T21:03:19.466Z,13.33
2019-01-23T21:05:47.580Z,13.90
2019-01-23T21:08:15.527Z,12.63
2019-01-23T21:10:46.732Z,12.53
2019-01-23T21:13:14.832Z,11.67
2019-01-23T21:15:44.161Z,10.23
2019-01-23T21:18:13.474Z,11.10
2019-01-23T21:20:43.257Z,11.43
2019-01-23T21:23:12.311Z,9.63
2019-01-23T21:25:40.349Z,9.37
2019-01-23T21:28:11.015Z,9.50
2019-01-23T21:30:39.113Z,8.83
2019-01-23T21:33:10.185Z,8.63
2019-01-23T21:35:38.244Z,8.93
2019-01-23T21:38:06.347Z,9.33
2019-01-23T21:40:34.503Z,10.33
2019-01-23T21:43:02.853Z,11.63
2019-01-23T21:45:35.272Z,10.27
2019-01-23T21:48:03.426Z,13.23
2019-01-23T21:50:31.512Z,13.03
2019-01-23T21:52:59.649Z,12.47
2019-01-23T21:55:27.612Z,12.97
2019-01-23T21:57:55.544Z,12.27
2019-01-23T22:00:34.337Z,11.33
2019-01-23T22:03:02.480Z,12.27
2019-01-23T22:05:30.505Z,11.07
2019-01-23T22:08:01.593Z,11.83
2019-01-23T22:10:29.588Z,13.93
2019-01-23T22:12:57.504Z,11.40
2019-01-23T22:15:25.568Z,12.00
2019-01-23T22:17:53.558Z,11.40
2019-01-23T22:20:21.690Z,11.10
2019-01-23T22:22:52.657Z,11.60
2019-01-23T22:25:21.660Z,11.87
2019-01-23T22:27:49.759Z,12.60
2019-01-23T22:30:21.940Z,12.63
2019-01-23T22:32:51.763Z,11.03
2019-01-23T22:35:19.851Z,10.47
2019-01-23T22:37:47.803Z,11.47
2019-01-23T22:40:16.375Z,10.57
2019-01-23T22:42:44.345Z,9.07
2019-01-23T22:45:13.102Z,9.23
2019-01-23T22:47:46.881Z,11.27
2019-01-23T22:50:18.692Z,10.90
2019-01-23T22:52:49.676Z,10.97
2019-01-23T22:55:17.714Z,10.73
2019-01-23T22:57:45.701Z,9.73
2019-01-23T23:00:16.836Z,10.43
2019-01-23T23:02:44.763Z,9.67
2019-01-23T23:05:12.868Z,11.27
2019-01-23T23:07:43.286Z,11.30
2019-01-23T23:10:11.495Z,10.77
2019-01-23T23:12:39.587Z,9.60
2019-01-23T23:15:08.201Z,10.80
2019-01-23T23:17:36.201Z,11.43
2019-01-23T23:20:04.863Z,11.47
2019-01-23T23:22:33.983Z,9.50
2019-01-23T23:25:02.299Z,9.53
2019-01-23T23:27:30.431Z,10.80
2019-01-23T23:29:58.575Z,12.63
2019-01-23T23:32:26.558Z,11.70
2019-01-23T23:34:56.965Z,12.47
2019-01-23T23:37:24.919Z,11.30
2019-01-23T23:39:53.116Z,10.70
2019-01-23T23:42:21.084Z,13.83
2019-01-23T23:44:49.033Z,12.30
2019-01-23T23:47:17.040Z,13.10
2019-01-23T23:49:45.244Z,12.13
2019-01-23T23:52:13.240Z,12.57
2019-01-23T23:54:41.221Z,11.87
2019-01-23T23:57:09.444Z,10.57
2019-01-23T23:59:41.232Z,12.20
